sensor_id;sensor_type;location;lat;lon;timestamp;P1;durP1;ratioP1;P2;durP2;ratioP2
5900;SDS011;2976;49.764;9.796;2023-12-20T00:02:15;10.60;;;5.57;;
5900;SDS011;2976;49.764;9.796;2023-12-20T00:04:41;11.57;;;6.47;;
5900;SDS011;2976;49.764;9.796;2023-12-20T00:07:07;12.43;;;5.30;;
5900;SDS011;2976;49.764;9.796;2023-12-20T00:09:32;10.03;;;5.60;;
5900;SDS011;2976;49.764;9.796;2023-12-20T00:11:58;9.13;;;5.40;;
5900;SDS011;2976;49.764;9.796;2023-12-20T00:14:23;9.00;;;5.70;;
5900;SDS011;2976;49.764;9.796;2023-12-20T00:16:49;8.07;;;5.07;;
5900;SDS011;2976;49.764;9.796;2023-12-20T00:19:14;7.13;;;4.00;;
5900;SDS011;2976;49.764;9.796;2023-12-20T00:21:40;5.57;;;3.97;;
5900;SDS011;2976;49.764;9.796;2023-12-20T00:24:06;4.03;;;3.30;;
5900;SDS011;2976;49.764;9.796;2023-12-20T00:26:31;5.73;;;3.43;;
5900;SDS011;2976;49.764;9.796;2023-12-20T00:28:57;3.40;;;2.50;;
5900;SDS011;2976;49.764;9.796;2023-12-20T00:31:22;2.10;;;2.00;;
5900;SDS011;2976;49.764;9.796;2023-12-20T00:33:48;3.23;;;2.23;;
5900;SDS011;2976;49.764;9.796;2023-12-20T00:36:13;1.80;;;1.70;;
5900;SDS011;2976;49.764;9.796;2023-12-20T00:38:39;2.20;;;1.53;;
5900;SDS011;2976;49.764;9.796;2023-12-20T00:41:04;1.60;;;1.50;;
5900;SDS011;2976;49.764;9.796;2023-12-20T00:43:30;1.60;;;1.40;;
5900;SDS011;2976;49.764;9.796;2023-12-20T00:45:55;1.27;;;1.17;;
5900;SDS011;2976;49.764;9.796;2023-12-20T00:48:21;0.90;;;0.90;;
5900;SDS011;2976;49.764;9.796;2023-12-20T00:50:46;1.33;;;1.17;;
5900;SDS011;2976;49.764;9.796;2023-12-20T00:53:12;1.53;;;1.30;;
5900;SDS011;2976;49.764;9.796;2023-12-20T00:55:37;5.10;;;1.23;;
5900;SDS011;2976;49.764;9.796;2023-12-20T00:58:03;0.63;;;0.63;;
5900;SDS011;2976;49.764;9.796;2023-12-20T01:00:29;1.30;;;1.20;;
5900;SDS011;2976;49.764;9.796;2023-12-20T01:02:54;0.70;;;0.70;;
5900;SDS011;2976;49.764;9.796;2023-12-20T01:05:20;2.30;;;0.50;;
5900;SDS011;2976;49.764;9.796;2023-12-20T01:07:48;1.00;;;1.00;;
5900;SDS011;2976;49.764;9.796;2023-12-20T01:10:14;0.70;;;0.70;;
5900;SDS011;2976;49.764;9.796;2023-12-20T01:12:39;0.50;;;0.50;;
5900;SDS011;2976;49.764;9.796;2023-12-20T01:15:05;1.00;;;1.00;;
5900;SDS011;2976;49.764;9.796;2023-12-20T01:17:31;1.30;;;0.73;;
5900;SDS011;2976;49.764;9.796;2023-12-20T01:19:56;0.50;;;0.50;;
5900;SDS011;2976;49.764;9.796;2023-12-20T01:22:23;0.33;;;0.33;;
5900;SDS011;2976;49.764;9.796;2023-12-20T01:24:48;0.47;;;0.47;;
5900;SDS011;2976;49.764;9.796;2023-12-20T01:27:14;0.50;;;0.50;;
5900;SDS011;2976;49.764;9.796;2023-12-20T01:29:39;0.40;;;0.40;;
5900;SDS011;2976;49.764;9.796;2023-12-20T01:32:05;0.30;;;0.30;;
5900;SDS011;2976;49.764;9.796;2023-12-20T01:34:31;0.50;;;0.50;;
5900;SDS011;2976;49.764;9.796;2023-12-20T01:36:56;0.50;;;0.50;;
5900;SDS011;2976;49.764;9.796;2023-12-20T01:39:22;1.17;;;0.50;;
5900;SDS011;2976;49.764;9.796;2023-12-20T01:41:48;0.40;;;0.40;;
5900;SDS011;2976;49.764;9.796;2023-12-20T01:44:13;0.30;;;0.30;;
5900;SDS011;2976;49.764;9.796;2023-12-20T01:46:39;0.40;;;0.40;;
5900;SDS011;2976;49.764;9.796;2023-12-20T01:49:05;0.50;;;0.50;;
5900;SDS011;2976;49.764;9.796;2023-12-20T01:51:30;0.30;;;0.30;;
5900;SDS011;2976;49.764;9.796;2023-12-20T01:53:57;0.43;;;0.43;;
5900;SDS011;2976;49.764;9.796;2023-12-20T01:56:24;0.40;;;0.40;;
5900;SDS011;2976;49.764;9.796;2023-12-20T01:58:51;0.57;;;0.50;;
5900;SDS011;2976;49.764;9.796;2023-12-20T02:01:16;0.53;;;0.40;;
5900;SDS011;2976;49.764;9.796;2023-12-20T02:03:43;0.70;;;0.70;;
5900;SDS011;2976;49.764;9.796;2023-12-20T02:06:10;0.40;;;0.40;;
5900;SDS011;2976;49.764;9.796;2023-12-20T02:08:36;4.40;;;0.77;;
5900;SDS011;2976;49.764;9.796;2023-12-20T02:11:02;0.60;;;0.60;;
5900;SDS011;2976;49.764;9.796;2023-12-20T02:13:27;2.00;;;0.50;;
5900;SDS011;2976;49.764;9.796;2023-12-20T02:15:54;0.40;;;0.40;;
5900;SDS011;2976;49.764;9.796;2023-12-20T02:18:20;0.53;;;0.53;;
5900;SDS011;2976;49.764;9.796;2023-12-20T02:20:46;0.60;;;0.60;;
5900;SDS011;2976;49.764;9.796;2023-12-20T02:23:11;0.60;;;0.60;;
5900;SDS011;2976;49.764;9.796;2023-12-20T02:25:37;0.60;;;0.60;;
5900;SDS011;2976;49.764;9.796;2023-12-20T02:28:02;0.53;;;0.53;;
5900;SDS011;2976;49.764;9.796;2023-12-20T02:30:29;0.50;;;0.50;;
5900;SDS011;2976;49.764;9.796;2023-12-20T02:32:54;0.30;;;0.30;;
5900;SDS011;2976;49.764;9.796;2023-12-20T02:35:21;0.50;;;0.50;;
5900;SDS011;2976;49.764;9.796;2023-12-20T02:37:46;0.30;;;0.30;;
5900;SDS011;2976;49.764;9.796;2023-12-20T02:40:12;0.50;;;0.50;;
5900;SDS011;2976;49.764;9.796;2023-12-20T02:42:37;0.40;;;0.40;;
5900;SDS011;2976;49.764;9.796;2023-12-20T02:45:03;0.60;;;0.60;;
5900;SDS011;2976;49.764;9.796;2023-12-20T02:47:29;0.43;;;0.43;;
5900;SDS011;2976;49.764;9.796;2023-12-20T02:49:55;0.50;;;0.50;;
5900;SDS011;2976;49.764;9.796;2023-12-20T02:52:21;0.50;;;0.50;;
5900;SDS011;2976;49.764;9.796;2023-12-20T02:54:50;0.30;;;0.30;;
5900;SDS011;2976;49.764;9.796;2023-12-20T02:57:16;0.40;;;0.40;;
5900;SDS011;2976;49.764;9.796;2023-12-20T02:59:41;0.63;;;0.50;;
5900;SDS011;2976;49.764;9.796;2023-12-20T03:02:07;0.40;;;0.40;;
5900;SDS011;2976;49.764;9.796;2023-12-20T03:04:32;1.43;;;0.40;;
5900;SDS011;2976;49.764;9.796;2023-12-20T03:06:58;0.40;;;0.40;;
5900;SDS011;2976;49.764;9.796;2023-12-20T03:09:23;0.30;;;0.30;;
5900;SDS011;2976;49.764;9.796;2023-12-20T03:11:49;0.50;;;0.47;;
5900;SDS011;2976;49.764;9.796;2023-12-20T03:14:15;0.30;;;0.30;;
5900;SDS011;2976;49.764;9.796;2023-12-20T03:16:40;0.50;;;0.50;;
5900;SDS011;2976;49.764;9.796;2023-12-20T03:19:06;0.50;;;0.50;;
5900;SDS011;2976;49.764;9.796;2023-12-20T03:21:31;0.40;;;0.40;;
5900;SDS011;2976;49.764;9.796;2023-12-20T03:23:57;0.50;;;0.50;;
5900;SDS011;2976;49.764;9.796;2023-12-20T03:26:23;0.50;;;0.50;;
5900;SDS011;2976;49.764;9.796;2023-12-20T03:28:48;0.40;;;0.40;;
5900;SDS011;2976;49.764;9.796;2023-12-20T03:31:14;0.50;;;0.50;;
5900;SDS011;2976;49.764;9.796;2023-12-20T03:33:39;0.40;;;0.40;;
5900;SDS011;2976;49.764;9.796;2023-12-20T03:36:05;0.43;;;0.43;;
5900;SDS011;2976;49.764;9.796;2023-12-20T03:38:31;0.50;;;0.50;;
5900;SDS011;2976;49.764;9.796;2023-12-20T03:40:56;0.40;;;0.40;;
5900;SDS011;2976;49.764;9.796;2023-12-20T03:43:22;0.40;;;0.40;;
5900;SDS011;2976;49.764;9.796;2023-12-20T03:45:47;0.60;;;0.60;;
5900;SDS011;2976;49.764;9.796;2023-12-20T03:48:13;0.50;;;0.50;;
5900;SDS011;2976;49.764;9.796;2023-12-20T03:50:38;0.30;;;0.30;;
5900;SDS011;2976;49.764;9.796;2023-12-20T03:53:04;0.50;;;0.50;;
5900;SDS011;2976;49.764;9.796;2023-12-20T03:55:30;0.40;;;0.40;;
5900;SDS011;2976;49.764;9.796;2023-12-20T03:57:55;0.40;;;0.40;;
5900;SDS011;2976;49.764;9.796;2023-12-20T04:00:21;0.40;;;0.30;;
5900;SDS011;2976;49.764;9.796;2023-12-20T04:02:46;0.53;;;0.50;;
5900;SDS011;2976;49.764;9.796;2023-12-20T04:05:12;0.60;;;0.50;;
5900;SDS011;2976;49.764;9.796;2023-12-20T04:07:37;2.47;;;0.40;;
5900;SDS011;2976;49.764;9.796;2023-12-20T04:10:04;0.60;;;0.60;;
5900;SDS011;2976;49.764;9.796;2023-12-20T04:12:30;0.30;;;0.30;;
5900;SDS011;2976;49.764;9.796;2023-12-20T04:14:57;0.63;;;0.63;;
5900;SDS011;2976;49.764;9.796;2023-12-20T04:17:22;1.70;;;0.40;;
5900;SDS011;2976;49.764;9.796;2023-12-20T04:19:48;0.90;;;0.60;;
5900;SDS011;2976;49.764;9.796;2023-12-20T04:22:15;0.60;;;0.60;;
5900;SDS011;2976;49.764;9.796;2023-12-20T04:24:40;0.70;;;0.60;;
5900;SDS011;2976;49.764;9.796;2023-12-20T04:27:07;0.70;;;0.70;;
5900;SDS011;2976;49.764;9.796;2023-12-20T04:29:33;0.40;;;0.40;;
5900;SDS011;2976;49.764;9.796;2023-12-20T04:31:59;0.30;;;0.30;;
5900;SDS011;2976;49.764;9.796;2023-12-20T04:34:25;0.30;;;0.30;;
5900;SDS011;2976;49.764;9.796;2023-12-20T04:36:51;0.50;;;0.50;;
5900;SDS011;2976;49.764;9.796;2023-12-20T04:39:16;0.43;;;0.30;;
5900;SDS011;2976;49.764;9.796;2023-12-20T04:41:42;0.50;;;0.50;;
5900;SDS011;2976;49.764;9.796;2023-12-20T04:44:07;0.67;;;0.67;;
5900;SDS011;2976;49.764;9.796;2023-12-20T04:46:33;0.40;;;0.40;;
5900;SDS011;2976;49.764;9.796;2023-12-20T04:48:58;0.50;;;0.50;;
5900;SDS011;2976;49.764;9.796;2023-12-20T04:51:24;0.70;;;0.70;;
5900;SDS011;2976;49.764;9.796;2023-12-20T04:53:49;0.50;;;0.50;;
5900;SDS011;2976;49.764;9.796;2023-12-20T04:56:15;0.90;;;0.90;;
5900;SDS011;2976;49.764;9.796;2023-12-20T04:58:42;0.80;;;0.50;;
5900;SDS011;2976;49.764;9.796;2023-12-20T05:01:07;0.60;;;0.60;;
5900;SDS011;2976;49.764;9.796;2023-12-20T05:03:33;0.70;;;0.70;;
5900;SDS011;2976;49.764;9.796;2023-12-20T05:05:59;0.77;;;0.77;;
5900;SDS011;2976;49.764;9.796;2023-12-20T05:08:25;0.70;;;0.70;;
5900;SDS011;2976;49.764;9.796;2023-12-20T05:10:53;1.17;;;1.10;;
5900;SDS011;2976;49.764;9.796;2023-12-20T05:13:19;0.60;;;0.60;;
5900;SDS011;2976;49.764;9.796;2023-12-20T05:15:45;0.77;;;0.77;;
5900;SDS011;2976;49.764;9.796;2023-12-20T05:18:11;0.83;;;0.83;;
5900;SDS011;2976;49.764;9.796;2023-12-20T05:20:37;0.80;;;0.80;;
5900;SDS011;2976;49.764;9.796;2023-12-20T05:23:03;0.60;;;0.60;;
5900;SDS011;2976;49.764;9.796;2023-12-20T05:25:29;0.67;;;0.67;;
5900;SDS011;2976;49.764;9.796;2023-12-20T05:27:55;1.00;;;0.90;;
5900;SDS011;2976;49.764;9.796;2023-12-20T05:30:21;1.03;;;1.03;;
5900;SDS011;2976;49.764;9.796;2023-12-20T05:32:46;3.07;;;1.03;;
5900;SDS011;2976;49.764;9.796;2023-12-20T05:35:12;1.00;;;0.97;;
5900;SDS011;2976;49.764;9.796;2023-12-20T05:37:38;0.87;;;0.87;;
5900;SDS011;2976;49.764;9.796;2023-12-20T05:40:03;0.70;;;0.70;;
5900;SDS011;2976;49.764;9.796;2023-12-20T05:42:29;0.80;;;0.80;;
5900;SDS011;2976;49.764;9.796;2023-12-20T05:44:55;0.93;;;0.90;;
5900;SDS011;2976;49.764;9.796;2023-12-20T05:47:20;0.97;;;0.90;;
5900;SDS011;2976;49.764;9.796;2023-12-20T05:49:46;1.13;;;1.13;;
5900;SDS011;2976;49.764;9.796;2023-12-20T05:52:11;0.90;;;0.90;;
5900;SDS011;2976;49.764;9.796;2023-12-20T05:54:37;1.03;;;1.03;;
5900;SDS011;2976;49.764;9.796;2023-12-20T05:57:03;1.10;;;1.00;;
5900;SDS011;2976;49.764;9.796;2023-12-20T05:59:28;1.03;;;0.80;;
5900;SDS011;2976;49.764;9.796;2023-12-20T06:01:54;0.67;;;0.50;;
5900;SDS011;2976;49.764;9.796;2023-12-20T06:04:19;2.40;;;1.00;;
5900;SDS011;2976;49.764;9.796;2023-12-20T06:06:45;1.87;;;1.20;;
5900;SDS011;2976;49.764;9.796;2023-12-20T06:09:10;1.53;;;1.43;;
5900;SDS011;2976;49.764;9.796;2023-12-20T06:11:36;1.57;;;1.40;;
5900;SDS011;2976;49.764;9.796;2023-12-20T06:14:02;0.93;;;0.93;;
5900;SDS011;2976;49.764;9.796;2023-12-20T06:16:27;0.80;;;0.80;;
5900;SDS011;2976;49.764;9.796;2023-12-20T06:18:53;4.20;;;1.27;;
5900;SDS011;2976;49.764;9.796;2023-12-20T06:21:18;2.97;;;1.20;;
5900;SDS011;2976;49.764;9.796;2023-12-20T06:23:44;1.77;;;1.67;;
5900;SDS011;2976;49.764;9.796;2023-12-20T06:26:10;2.13;;;2.00;;
5900;SDS011;2976;49.764;9.796;2023-12-20T06:28:35;2.07;;;1.43;;
5900;SDS011;2976;49.764;9.796;2023-12-20T06:31:01;2.47;;;2.27;;
5900;SDS011;2976;49.764;9.796;2023-12-20T06:33:26;2.27;;;2.07;;
5900;SDS011;2976;49.764;9.796;2023-12-20T06:35:52;2.50;;;2.30;;
5900;SDS011;2976;49.764;9.796;2023-12-20T06:38:18;3.80;;;2.57;;
5900;SDS011;2976;49.764;9.796;2023-12-20T06:40:44;3.47;;;2.60;;
5900;SDS011;2976;49.764;9.796;2023-12-20T06:43:10;1.77;;;1.67;;
5900;SDS011;2976;49.764;9.796;2023-12-20T06:45:37;2.13;;;2.00;;
5900;SDS011;2976;49.764;9.796;2023-12-20T06:48:03;2.27;;;2.10;;
5900;SDS011;2976;49.764;9.796;2023-12-20T06:50:28;2.03;;;1.87;;
5900;SDS011;2976;49.764;9.796;2023-12-20T06:52:54;3.10;;;2.33;;
5900;SDS011;2976;49.764;9.796;2023-12-20T06:55:19;2.33;;;2.17;;
5900;SDS011;2976;49.764;9.796;2023-12-20T06:57:45;2.80;;;2.10;;
5900;SDS011;2976;49.764;9.796;2023-12-20T07:00:11;3.40;;;2.40;;
5900;SDS011;2976;49.764;9.796;2023-12-20T07:02:37;3.27;;;2.70;;
5900;SDS011;2976;49.764;9.796;2023-12-20T07:05:03;2.47;;;2.20;;
5900;SDS011;2976;49.764;9.796;2023-12-20T07:07:29;3.90;;;2.17;;
5900;SDS011;2976;49.764;9.796;2023-12-20T07:09:55;6.20;;;2.80;;
5900;SDS011;2976;49.764;9.796;2023-12-20T07:12:20;5.80;;;2.50;;
5900;SDS011;2976;49.764;9.796;2023-12-20T07:14:46;6.97;;;2.37;;
5900;SDS011;2976;49.764;9.796;2023-12-20T07:17:12;3.50;;;2.27;;
5900;SDS011;2976;49.764;9.796;2023-12-20T07:19:39;9.07;;;2.40;;
5900;SDS011;2976;49.764;9.796;2023-12-20T07:22:05;3.13;;;2.27;;
5900;SDS011;2976;49.764;9.796;2023-12-20T07:24:32;2.80;;;2.13;;
5900;SDS011;2976;49.764;9.796;2023-12-20T07:26:58;2.30;;;1.73;;
5900;SDS011;2976;49.764;9.796;2023-12-20T07:29:24;6.77;;;2.57;;
5900;SDS011;2976;49.764;9.796;2023-12-20T07:31:50;9.90;;;2.63;;
5900;SDS011;2976;49.764;9.796;2023-12-20T07:34:17;6.90;;;3.50;;
5900;SDS011;2976;49.764;9.796;2023-12-20T07:36:43;4.67;;;2.73;;
5900;SDS011;2976;49.764;9.796;2023-12-20T07:39:08;16.60;;;2.80;;
5900;SDS011;2976;49.764;9.796;2023-12-20T07:41:34;8.03;;;2.20;;
5900;SDS011;2976;49.764;9.796;2023-12-20T07:43:59;2.90;;;2.07;;
5900;SDS011;2976;49.764;9.796;2023-12-20T07:46:25;3.67;;;2.07;;
5900;SDS011;2976;49.764;9.796;2023-12-20T07:48:50;4.97;;;1.80;;
5900;SDS011;2976;49.764;9.796;2023-12-20T07:51:16;10.07;;;2.07;;
5900;SDS011;2976;49.764;9.796;2023-12-20T07:53:42;2.73;;;1.50;;
5900;SDS011;2976;49.764;9.796;2023-12-20T07:56:17;9.17;;;1.50;;
5900;SDS011;2976;49.764;9.796;2023-12-20T07:58:44;2.00;;;1.43;;
5900;SDS011;2976;49.764;9.796;2023-12-20T08:01:10;1.90;;;1.10;;
5900;SDS011;2976;49.764;9.796;2023-12-20T08:03:36;1.03;;;1.03;;
5900;SDS011;2976;49.764;9.796;2023-12-20T08:06:02;14.10;;;2.00;;
5900;SDS011;2976;49.764;9.796;2023-12-20T08:08:28;1.73;;;1.60;;
5900;SDS011;2976;49.764;9.796;2023-12-20T08:10:54;6.13;;;1.60;;
5900;SDS011;2976;49.764;9.796;2023-12-20T08:13:20;1.10;;;1.00;;
5900;SDS011;2976;49.764;9.796;2023-12-20T08:15:50;5.67;;;1.47;;
5900;SDS011;2976;49.764;9.796;2023-12-20T08:18:15;3.07;;;1.23;;
5900;SDS011;2976;49.764;9.796;2023-12-20T08:20:41;2.73;;;1.07;;
5900;SDS011;2976;49.764;9.796;2023-12-20T08:23:06;12.53;;;1.50;;
5900;SDS011;2976;49.764;9.796;2023-12-20T08:25:32;1.10;;;1.00;;
5900;SDS011;2976;49.764;9.796;2023-12-20T08:27:57;1.67;;;1.03;;
5900;SDS011;2976;49.764;9.796;2023-12-20T08:30:23;9.00;;;1.40;;
5900;SDS011;2976;49.764;9.796;2023-12-20T08:32:48;3.27;;;1.17;;
5900;SDS011;2976;49.764;9.796;2023-12-20T08:35:14;2.73;;;1.27;;
5900;SDS011;2976;49.764;9.796;2023-12-20T08:37:39;5.73;;;1.80;;
5900;SDS011;2976;49.764;9.796;2023-12-20T08:40:05;2.00;;;0.97;;
5900;SDS011;2976;49.764;9.796;2023-12-20T08:42:31;3.60;;;1.00;;
5900;SDS011;2976;49.764;9.796;2023-12-20T08:44:57;2.40;;;1.33;;
5900;SDS011;2976;49.764;9.796;2023-12-20T08:47:26;1.30;;;0.90;;
5900;SDS011;2976;49.764;9.796;2023-12-20T08:49:52;3.00;;;1.13;;
5900;SDS011;2976;49.764;9.796;2023-12-20T08:52:24;2.93;;;1.03;;
5900;SDS011;2976;49.764;9.796;2023-12-20T08:54:50;3.40;;;1.37;;
5900;SDS011;2976;49.764;9.796;2023-12-20T08:57:19;1.40;;;0.80;;
5900;SDS011;2976;49.764;9.796;2023-12-20T08:59:46;0.97;;;0.63;;
5900;SDS011;2976;49.764;9.796;2023-12-20T09:02:13;1.23;;;0.70;;
5900;SDS011;2976;49.764;9.796;2023-12-20T09:04:39;0.87;;;0.60;;
5900;SDS011;2976;49.764;9.796;2023-12-20T09:07:04;1.20;;;1.10;;
5900;SDS011;2976;49.764;9.796;2023-12-20T09:09:30;1.13;;;0.80;;
5900;SDS011;2976;49.764;9.796;2023-12-20T09:11:57;2.10;;;1.07;;
5900;SDS011;2976;49.764;9.796;2023-12-20T09:14:23;7.00;;;1.20;;
5900;SDS011;2976;49.764;9.796;2023-12-20T09:16:48;2.77;;;0.93;;
5900;SDS011;2976;49.764;9.796;2023-12-20T09:19:16;7.03;;;1.30;;
5900;SDS011;2976;49.764;9.796;2023-12-20T09:21:42;5.00;;;1.40;;
5900;SDS011;2976;49.764;9.796;2023-12-20T09:24:07;1.37;;;0.90;;
5900;SDS011;2976;49.764;9.796;2023-12-20T09:26:33;2.73;;;1.20;;
5900;SDS011;2976;49.764;9.796;2023-12-20T09:28:59;0.97;;;0.97;;
5900;SDS011;2976;49.764;9.796;2023-12-20T09:31:25;6.27;;;1.30;;
5900;SDS011;2976;49.764;9.796;2023-12-20T09:33:50;2.30;;;0.77;;
5900;SDS011;2976;49.764;9.796;2023-12-20T09:36:16;1.70;;;0.70;;
5900;SDS011;2976;49.764;9.796;2023-12-20T09:38:41;5.27;;;1.50;;
5900;SDS011;2976;49.764;9.796;2023-12-20T09:41:07;2.77;;;1.20;;
5900;SDS011;2976;49.764;9.796;2023-12-20T09:43:34;2.40;;;1.00;;
5900;SDS011;2976;49.764;9.796;2023-12-20T09:46:02;1.67;;;0.80;;
5900;SDS011;2976;49.764;9.796;2023-12-20T09:48:35;2.00;;;0.90;;
5900;SDS011;2976;49.764;9.796;2023-12-20T09:51:02;3.27;;;1.00;;
5900;SDS011;2976;49.764;9.796;2023-12-20T09:53:28;4.07;;;0.60;;
5900;SDS011;2976;49.764;9.796;2023-12-20T09:55:58;9.20;;;1.47;;
5900;SDS011;2976;49.764;9.796;2023-12-20T09:58:26;3.67;;;1.10;;
5900;SDS011;2976;49.764;9.796;2023-12-20T10:00:52;3.63;;;0.90;;
5900;SDS011;2976;49.764;9.796;2023-12-20T10:03:19;8.17;;;1.63;;
5900;SDS011;2976;49.764;9.796;2023-12-20T10:05:49;2.30;;;1.10;;
5900;SDS011;2976;49.764;9.796;2023-12-20T10:08:19;3.90;;;0.80;;
5900;SDS011;2976;49.764;9.796;2023-12-20T10:10:47;4.87;;;1.20;;
5900;SDS011;2976;49.764;9.796;2023-12-20T10:13:12;1.27;;;0.97;;
5900;SDS011;2976;49.764;9.796;2023-12-20T10:15:38;1.67;;;1.00;;
5900;SDS011;2976;49.764;9.796;2023-12-20T10:18:04;10.23;;;1.30;;
5900;SDS011;2976;49.764;9.796;2023-12-20T10:20:30;1.77;;;0.87;;
5900;SDS011;2976;49.764;9.796;2023-12-20T10:22:57;3.53;;;1.27;;
5900;SDS011;2976;49.764;9.796;2023-12-20T10:25:23;1.83;;;1.30;;
5900;SDS011;2976;49.764;9.796;2023-12-20T10:27:50;6.27;;;0.90;;
5900;SDS011;2976;49.764;9.796;2023-12-20T10:30:44;1.33;;;1.00;;
5900;SDS011;2976;49.764;9.796;2023-12-20T10:33:09;11.13;;;1.77;;
5900;SDS011;2976;49.764;9.796;2023-12-20T10:35:36;1.80;;;1.30;;
5900;SDS011;2976;49.764;9.796;2023-12-20T10:38:03;8.33;;;2.73;;
5900;SDS011;2976;49.764;9.796;2023-12-20T10:40:30;8.70;;;4.30;;
5900;SDS011;2976;49.764;9.796;2023-12-20T10:42:59;23.37;;;9.03;;
5900;SDS011;2976;49.764;9.796;2023-12-20T10:45:26;9.47;;;4.37;;
5900;SDS011;2976;49.764;9.796;2023-12-20T10:47:51;7.33;;;1.90;;
5900;SDS011;2976;49.764;9.796;2023-12-20T10:50:18;11.67;;;4.20;;
5900;SDS011;2976;49.764;9.796;2023-12-20T10:52:44;13.83;;;5.23;;
5900;SDS011;2976;49.764;9.796;2023-12-20T10:55:12;12.47;;;3.67;;
5900;SDS011;2976;49.764;9.796;2023-12-20T10:57:38;12.27;;;2.53;;
5900;SDS011;2976;49.764;9.796;2023-12-20T11:00:05;12.03;;;4.70;;
5900;SDS011;2976;49.764;9.796;2023-12-20T11:02:36;13.93;;;6.17;;
5900;SDS011;2976;49.764;9.796;2023-12-20T11:07:48;8.20;;;3.53;;
5900;SDS011;2976;49.764;9.796;2023-12-20T11:10:30;7.27;;;3.67;;
5900;SDS011;2976;49.764;9.796;2023-12-20T11:15:36;8.73;;;3.30;;
5900;SDS011;2976;49.764;9.796;2023-12-20T11:18:01;10.43;;;6.90;;
5900;SDS011;2976;49.764;9.796;2023-12-20T11:20:38;1.87;;;1.77;;
5900;SDS011;2976;49.764;9.796;2023-12-20T11:23:05;5.87;;;2.67;;
5900;SDS011;2976;49.764;9.796;2023-12-20T11:28:13;12.30;;;6.07;;
5900;SDS011;2976;49.764;9.796;2023-12-20T11:33:08;13.70;;;6.77;;
5900;SDS011;2976;49.764;9.796;2023-12-20T11:35:34;7.50;;;3.53;;
5900;SDS011;2976;49.764;9.796;2023-12-20T11:38:01;9.03;;;4.57;;
5900;SDS011;2976;49.764;9.796;2023-12-20T11:40:27;1.23;;;0.87;;
5900;SDS011;2976;49.764;9.796;2023-12-20T11:42:52;18.80;;;7.50;;
5900;SDS011;2976;49.764;9.796;2023-12-20T11:45:21;29.93;;;11.20;;
5900;SDS011;2976;49.764;9.796;2023-12-20T11:47:49;15.07;;;5.00;;
5900;SDS011;2976;49.764;9.796;2023-12-20T11:50:19;24.87;;;10.77;;
5900;SDS011;2976;49.764;9.796;2023-12-20T11:52:45;27.40;;;10.83;;
5900;SDS011;2976;49.764;9.796;2023-12-20T11:55:15;10.40;;;5.67;;
5900;SDS011;2976;49.764;9.796;2023-12-20T11:57:41;3.60;;;2.00;;
5900;SDS011;2976;49.764;9.796;2023-12-20T12:00:07;26.10;;;9.17;;
5900;SDS011;2976;49.764;9.796;2023-12-20T12:02:33;56.37;;;17.53;;
5900;SDS011;2976;49.764;9.796;2023-12-20T12:04:59;20.90;;;8.63;;
5900;SDS011;2976;49.764;9.796;2023-12-20T12:07:24;26.90;;;10.30;;
5900;SDS011;2976;49.764;9.796;2023-12-20T12:09:50;20.37;;;7.30;;
5900;SDS011;2976;49.764;9.796;2023-12-20T12:12:16;13.07;;;3.80;;
5900;SDS011;2976;49.764;9.796;2023-12-20T12:14:44;29.33;;;8.37;;
5900;SDS011;2976;49.764;9.796;2023-12-20T12:17:10;19.43;;;6.20;;
5900;SDS011;2976;49.764;9.796;2023-12-20T12:19:39;24.07;;;4.80;;
5900;SDS011;2976;49.764;9.796;2023-12-20T12:22:09;17.80;;;8.00;;
5900;SDS011;2976;49.764;9.796;2023-12-20T12:24:44;19.63;;;5.90;;
5900;SDS011;2976;49.764;9.796;2023-12-20T12:27:11;24.67;;;7.93;;
5900;SDS011;2976;49.764;9.796;2023-12-20T12:29:37;18.40;;;6.53;;
5900;SDS011;2976;49.764;9.796;2023-12-20T12:32:07;113.30;;;39.07;;
5900;SDS011;2976;49.764;9.796;2023-12-20T12:34:36;176.73;;;57.40;;
5900;SDS011;2976;49.764;9.796;2023-12-20T12:37:02;33.43;;;11.10;;
5900;SDS011;2976;49.764;9.796;2023-12-20T12:39:29;25.20;;;10.40;;
5900;SDS011;2976;49.764;9.796;2023-12-20T12:41:55;7.17;;;1.27;;
5900;SDS011;2976;49.764;9.796;2023-12-20T12:44:22;7.53;;;3.80;;
5900;SDS011;2976;49.764;9.796;2023-12-20T12:46:49;5.80;;;3.10;;
5900;SDS011;2976;49.764;9.796;2023-12-20T12:49:16;8.33;;;4.80;;
5900;SDS011;2976;49.764;9.796;2023-12-20T12:51:42;3.27;;;1.83;;
5900;SDS011;2976;49.764;9.796;2023-12-20T12:54:08;9.80;;;4.30;;
5900;SDS011;2976;49.764;9.796;2023-12-20T12:56:34;4.93;;;1.93;;
5900;SDS011;2976;49.764;9.796;2023-12-20T12:59:01;6.83;;;1.83;;
5900;SDS011;2976;49.764;9.796;2023-12-20T13:01:27;12.43;;;4.33;;
5900;SDS011;2976;49.764;9.796;2023-12-20T13:03:53;42.37;;;16.70;;
5900;SDS011;2976;49.764;9.796;2023-12-20T13:06:19;14.80;;;6.90;;
5900;SDS011;2976;49.764;9.796;2023-12-20T13:08:45;12.00;;;6.63;;
5900;SDS011;2976;49.764;9.796;2023-12-20T13:11:10;4.37;;;2.10;;
5900;SDS011;2976;49.764;9.796;2023-12-20T13:13:36;7.00;;;1.40;;
5900;SDS011;2976;49.764;9.796;2023-12-20T13:16:01;12.70;;;2.77;;
5900;SDS011;2976;49.764;9.796;2023-12-20T13:18:27;7.20;;;2.77;;
5900;SDS011;2976;49.764;9.796;2023-12-20T13:20:53;15.40;;;1.83;;
5900;SDS011;2976;49.764;9.796;2023-12-20T13:23:19;9.10;;;2.43;;
5900;SDS011;2976;49.764;9.796;2023-12-20T13:25:44;3.47;;;1.50;;
5900;SDS011;2976;49.764;9.796;2023-12-20T13:28:13;4.73;;;1.40;;
5900;SDS011;2976;49.764;9.796;2023-12-20T13:30:39;4.07;;;1.60;;
5900;SDS011;2976;49.764;9.796;2023-12-20T13:33:05;3.07;;;1.30;;
5900;SDS011;2976;49.764;9.796;2023-12-20T13:35:31;10.60;;;1.50;;
5900;SDS011;2976;49.764;9.796;2023-12-20T13:37:57;1.90;;;1.20;;
5900;SDS011;2976;49.764;9.796;2023-12-20T13:40:23;5.03;;;1.40;;
5900;SDS011;2976;49.764;9.796;2023-12-20T13:42:49;2.23;;;1.27;;
5900;SDS011;2976;49.764;9.796;2023-12-20T13:45:15;1.80;;;1.00;;
5900;SDS011;2976;49.764;9.796;2023-12-20T13:47:41;4.37;;;1.10;;
5900;SDS011;2976;49.764;9.796;2023-12-20T13:50:06;2.00;;;1.20;;
5900;SDS011;2976;49.764;9.796;2023-12-20T13:52:32;6.20;;;1.50;;
5900;SDS011;2976;49.764;9.796;2023-12-20T13:54:58;3.07;;;1.60;;
5900;SDS011;2976;49.764;9.796;2023-12-20T13:57:23;2.53;;;1.57;;
5900;SDS011;2976;49.764;9.796;2023-12-20T13:59:49;4.10;;;1.43;;
5900;SDS011;2976;49.764;9.796;2023-12-20T14:02:14;2.00;;;1.60;;
5900;SDS011;2976;49.764;9.796;2023-12-20T14:04:41;1.50;;;1.07;;
5900;SDS011;2976;49.764;9.796;2023-12-20T14:07:07;3.00;;;1.50;;
5900;SDS011;2976;49.764;9.796;2023-12-20T14:09:32;6.37;;;1.33;;
5900;SDS011;2976;49.764;9.796;2023-12-20T14:11:59;1.20;;;0.93;;
5900;SDS011;2976;49.764;9.796;2023-12-20T14:14:24;1.10;;;1.00;;
5900;SDS011;2976;49.764;9.796;2023-12-20T14:16:50;5.90;;;1.67;;
5900;SDS011;2976;49.764;9.796;2023-12-20T14:19:16;7.57;;;1.60;;
5900;SDS011;2976;49.764;9.796;2023-12-20T14:21:41;9.10;;;1.13;;
5900;SDS011;2976;49.764;9.796;2023-12-20T14:24:07;7.27;;;1.43;;
5900;SDS011;2976;49.764;9.796;2023-12-20T14:26:32;2.70;;;1.60;;
5900;SDS011;2976;49.764;9.796;2023-12-20T14:28:58;3.17;;;1.50;;
5900;SDS011;2976;49.764;9.796;2023-12-20T14:31:23;4.60;;;1.60;;
5900;SDS011;2976;49.764;9.796;2023-12-20T14:33:50;2.40;;;1.30;;
5900;SDS011;2976;49.764;9.796;2023-12-20T14:36:18;5.17;;;2.40;;
5900;SDS011;2976;49.764;9.796;2023-12-20T14:38:45;4.43;;;2.20;;
5900;SDS011;2976;49.764;9.796;2023-12-20T14:41:11;3.73;;;2.10;;
5900;SDS011;2976;49.764;9.796;2023-12-20T14:43:37;2.90;;;1.50;;
5900;SDS011;2976;49.764;9.796;2023-12-20T14:46:03;2.57;;;1.20;;
5900;SDS011;2976;49.764;9.796;2023-12-20T14:48:30;9.13;;;4.67;;
5900;SDS011;2976;49.764;9.796;2023-12-20T14:50:57;4.73;;;1.97;;
5900;SDS011;2976;49.764;9.796;2023-12-20T14:53:24;7.10;;;1.80;;
5900;SDS011;2976;49.764;9.796;2023-12-20T14:55:50;2.17;;;1.27;;
5900;SDS011;2976;49.764;9.796;2023-12-20T14:58:16;7.17;;;2.90;;
5900;SDS011;2976;49.764;9.796;2023-12-20T15:00:42;3.77;;;2.27;;
5900;SDS011;2976;49.764;9.796;2023-12-20T15:03:08;2.47;;;1.90;;
5900;SDS011;2976;49.764;9.796;2023-12-20T15:05:34;8.57;;;3.20;;
5900;SDS011;2976;49.764;9.796;2023-12-20T15:08:00;1.47;;;1.17;;
5900;SDS011;2976;49.764;9.796;2023-12-20T15:10:26;2.20;;;1.90;;
5900;SDS011;2976;49.764;9.796;2023-12-20T15:12:52;7.43;;;2.30;;
5900;SDS011;2976;49.764;9.796;2023-12-20T15:15:17;7.20;;;1.90;;
5900;SDS011;2976;49.764;9.796;2023-12-20T15:17:43;7.97;;;2.57;;